Time;durP1;ratioP1;P1;durP2;ratioP2;P2;SDS_P1;SDS_P2;PMS_P1;PMS_P2;Temp;Humidity;BMP_temperature;BMP_pressure;BME280_temperature;BME280_humidity;BME280_pressure;Samples;Min_cycle;Max_cycle;Signal;HPM_P1;HPM_P2
2022/01/04 00:01:57;;;;;;;8.73;2.58;;;16.30;78.70;;;;;;5104851;27;20086;-67
2022/01/04 00:04:23;;;;;;;7.63;1.83;;;16.30;78.40;;;;;;5134012;27;20096;-67
2022/01/04 00:06:49;;;;;;;8.85;2.08;;;16.30;78.10;;;;;;5081007;27;20031;-66
2022/01/04 00:09:14;;;;;;;8.70;2.15;;;16.40;78.00;;;;;;5125499;27;20469;-67
2022/01/04 00:11:57;;;;;;;10.60;2.22;;;16.40;78.10;;;;;;5105612;27;20058;-67
2022/01/04 00:14:23;;;;;;;8.88;1.92;;;16.50;78.60;;;;;;5125957;27;20484;-67
2022/01/04 00:16:50;;;;;;;10.57;2.00;;;16.50;78.20;;;;;;5105834;27;20038;-67
2022/01/04 00:19:17;;;;;;;8.35;1.83;;;16.50;77.80;;;;;;5107161;27;20047;-67
2022/01/04 00:21:43;;;;;;;8.77;2.10;;;16.60;77.60;;;;;;5105855;27;20043;-67
2022/01/04 00:24:09;;;;;;;7.32;1.77;;;16.60;77.50;;;;;;5107231;27;20039;-67
2022/01/04 00:26:35;;;;;;;10.30;2.30;;;16.60;77.30;;;;;;5105576;27;20035;-67
2022/01/04 00:29:01;;;;;;;9.60;1.73;;;16.70;77.20;;;;;;5106983;27;20536;-67
2022/01/04 00:31:26;;;;;;;8.77;1.98;;;16.70;77.60;;;;;;5088775;27;20043;-67
2022/01/04 00:33:52;;;;;;;8.13;1.60;;;16.70;77.40;;;;;;5107261;27;20035;-71
2022/01/04 00:36:18;;;;;;;8.55;2.30;;;16.70;77.20;;;;;;5106628;27;20114;-67
2022/01/04 00:38:43;;;;;;;10.55;2.05;;;16.70;77.00;;;;;;5107236;27;20079;-69
2022/01/04 00:41:09;;;;;;;6.18;1.45;;;16.80;76.90;;;;;;5107047;27;20572;-67
2022/01/04 00:43:35;;;;;;;7.93;1.98;;;16.70;76.70;;;;;;5105548;27;20084;-67
2022/01/04 00:46:01;;;;;;;6.32;1.92;;;16.80;77.10;;;;;;5125159;27;20042;-67
2022/01/04 00:50:54;;;;;;;6.65;1.95;;;16.80;78.00;;;;;;5106197;27;20039;-67
2022/01/04 00:53:20;;;;;;;7.10;1.50;;;16.80;77.50;;;;;;5105893;27;20380;-67
2022/01/04 00:55:46;;;;;;;7.05;1.85;;;16.80;77.00;;;;;;5106583;27;20027;-67
2022/01/04 00:58:12;;;;;;;7.43;1.95;;;16.80;76.70;;;;;;5105425;27;20681;-67
2022/01/04 01:00:39;;;;;;;6.63;1.75;;;16.80;76.50;;;;;;5105450;28;20035;-67
2022/01/04 01:03:06;;;;;;;6.93;1.70;;;16.80;76.30;;;;;;5088998;27;20046;-67
2022/01/04 01:05:33;;;;;;;6.43;1.60;;;16.80;76.10;;;;;;5105799;27;20035;-67
2022/01/04 01:08:00;;;;;;;7.95;2.03;;;16.80;77.60;;;;;;5105357;27;20047;-67
2022/01/04 01:10:44;;;;;;;6.55;1.67;;;16.80;78.30;;;;;;5105778;28;20051;-67
2022/01/04 01:13:12;;;;;;;5.38;1.50;;;16.70;77.80;;;;;;5105906;28;20365;-67
2022/01/04 01:15:40;;;;;;;7.68;1.98;;;16.70;77.90;;;;;;5090205;28;20086;-67
2022/01/04 01:18:06;;;;;;;8.40;1.98;;;16.70;77.00;;;;;;5104813;28;20050;-67
2022/01/04 01:20:32;;;;;;;7.20;1.67;;;16.70;76.60;;;;;;5124767;28;20407;-67
2022/01/04 01:22:58;;;;;;;6.90;1.60;;;16.70;76.40;;;;;;5105009;28;20057;-67
2022/01/04 01:25:24;;;;;;;10.40;2.28;;;16.70;77.60;;;;;;5106225;28;20054;-67
2022/01/04 01:27:49;;;;;;;7.78;1.80;;;16.70;78.60;;;;;;5088886;28;20047;-67
2022/01/04 01:30:15;;;;;;;8.20;1.80;;;16.70;79.10;;;;;;5105579;28;20047;-68
2022/01/04 01:32:41;;;;;;;9.70;2.08;;;16.70;79.10;;;;;;5123774;28;20054;-67
2022/01/04 01:35:07;;;;;;;8.95;2.00;;;16.70;78.80;;;;;;5106017;28;20373;-67
2022/01/04 01:37:34;;;;;;;6.80;1.80;;;16.70;78.30;;;;;;5105351;28;20031;-67
2022/01/04 01:39:59;;;;;;;8.13;1.90;;;16.60;78.00;;;;;;5124088;28;20047;-67
2022/01/04 01:42:25;;;;;;;6.55;1.73;;;16.60;78.10;;;;;;5122470;28;20065;-67
2022/01/04 01:44:51;;;;;;;8.63;1.90;;;16.60;79.10;;;;;;5106022;28;20043;-67
2022/01/04 01:47:16;;;;;;;8.00;1.77;;;16.60;79.60;;;;;;5123120;28;20043;-67
2022/01/04 01:49:43;;;;;;;8.07;2.03;;;16.60;79.90;;;;;;5106563;28;20499;-67
2022/01/04 01:52:09;;;;;;;6.72;1.98;;;16.60;79.90;;;;;;5104288;28;20039;-67
2022/01/04 01:54:34;;;;;;;6.57;1.80;;;16.50;79.60;;;;;;5106016;28;20122;-67
2022/01/04 01:57:00;;;;;;;7.47;1.73;;;16.50;79.30;;;;;;5104980;28;20694;-67
2022/01/04 01:59:25;;;;;;;7.57;1.90;;;16.50;78.90;;;;;;5105479;28;20035;-67
2022/01/04 02:01:51;;;;;;;7.13;1.80;;;16.50;79.50;;;;;;5104505;28;20084;-67
2022/01/04 02:04:17;;;;;;;7.18;1.92;;;16.50;80.00;;;;;;5105943;28;20561;-67
2022/01/04 02:06:42;;;;;;;8.98;2.10;;;16.50;80.30;;;;;;5104488;28;20043;-67
2022/01/04 02:09:08;;;;;;;6.75;1.73;;;16.50;80.40;;;;;;5105752;28;20713;-67
2022/01/04 02:11:34;;;;;;;8.60;2.22;;;16.40;80.20;;;;;;5103839;28;20134;-67
2022/01/04 02:14:01;;;;;;;7.78;1.60;;;16.40;80.10;;;;;;5106803;28;20035;-67
2022/01/04 02:16:29;;;;;;;7.15;1.98;;;16.40;80.00;;;;;;5104414;28;20046;-67
2022/01/04 02:19:02;;;;;;;11.48;2.25;;;16.40;80.10;;;;;;5109734;27;20042;-67
2022/01/04 02:21:30;;;;;;;6.28;1.58;;;16.40;80.10;;;;;;5108390;27;20103;-67
2022/01/04 02:23:56;;;;;;;5.63;1.50;;;16.40;80.50;;;;;;5108582;27;20047;-67
2022/01/04 02:26:22;;;;;;;6.95;1.70;;;16.40;80.70;;;;;;5108349;27;20296;-67
2022/01/04 02:28:49;;;;;;;8.05;1.90;;;16.40;80.70;;;;;;5107559;27;20074;-67
2022/01/04 02:31:14;;;;;;;9.48;1.90;;;16.30;80.40;;;;;;5108941;27;20100;-67
2022/01/04 02:33:40;;;;;;;7.03;2.00;;;16.30;80.40;;;;;;5108399;27;20047;-67
2022/01/04 02:36:06;;;;;;;6.68;1.48;;;16.30;80.40;;;;;;5109285;27;20047;-67
2022/01/04 02:38:33;;;;;;;7.88;1.63;;;16.30;80.60;;;;;;5100119;27;20733;-67
2022/01/04 02:40:59;;;;;;;7.43;1.70;;;16.30;80.40;;;;;;5073747;27;20108;-67
2022/01/04 02:43:25;;;;;;;5.35;1.67;;;16.30;80.40;;;;;;5122328;27;20047;-67
2022/01/04 02:45:50;;;;;;;7.80;1.90;;;16.30;80.70;;;;;;5127663;27;20050;-67
2022/01/04 02:48:16;;;;;;;6.32;1.98;;;16.30;80.80;;;;;;5086808;27;20605;-67
2022/01/04 02:50:42;;;;;;;7.40;1.77;;;16.30;80.50;;;;;;5083806;27;20087;-67
2022/01/04 02:53:07;;;;;;;10.05;2.25;;;16.30;79.90;;;;;;5102791;27;20046;-67
2022/01/04 02:55:33;;;;;;;9.18;2.28;;;16.20;80.00;;;;;;5091807;27;20122;-67
2022/01/04 02:57:59;;;;;;;9.18;2.25;;;16.20;80.20;;;;;;5107805;27;20118;-67
2022/01/04 03:00:25;;;;;;;8.48;1.88;;;16.20;80.20;;;;;;5108028;27;20085;-67
2022/01/04 03:02:52;;;;;;;7.93;2.20;;;16.30;80.00;;;;;;5090666;27;20428;-67
2022/01/04 03:05:17;;;;;;;8.30;1.90;;;16.30;79.50;;;;;;5091665;27;20416;-67
2022/01/04 03:07:43;;;;;;;7.55;1.88;;;16.30;78.90;;;;;;5107466;27;20065;-67
2022/01/04 03:10:09;;;;;;;6.32;1.73;;;16.30;78.50;;;;;;5126542;27;20697;-67
2022/01/04 03:12:39;;;;;;;6.93;1.92;;;16.30;78.20;;;;;;5107675;27;20035;-67
2022/01/04 03:15:05;;;;;;;6.70;1.70;;;16.30;78.70;;;;;;5126582;27;20083;-67
2022/01/04 03:17:31;;;;;;;8.63;2.00;;;16.40;79.10;;;;;;5107240;27;20078;-67
2022/01/04 03:19:56;;;;;;;6.88;1.73;;;16.40;78.40;;;;;;5108842;27;20078;-67
2022/01/04 03:22:22;;;;;;;9.25;1.77;;;16.40;78.00;;;;;;5090129;27;20138;-67
2022/01/04 03:24:47;;;;;;;6.38;1.52;;;16.50;77.70;;;;;;5108630;27;20050;-67
2022/01/04 03:27:13;;;;;;;8.38;1.80;;;16.50;77.50;;;;;;5106780;27;20039;-66
2022/01/04 03:29:38;;;;;;;7.72;1.90;;;16.50;77.30;;;;;;5107938;27;20508;-66
2022/01/04 03:32:05;;;;;;;6.72;1.85;;;16.50;77.20;;;;;;5106869;27;20047;-66
2022/01/04 03:34:30;;;;;;;6.68;1.77;;;16.60;77.50;;;;;;5126245;27;20039;-66
2022/01/04 03:36:56;;;;;;;8.15;2.15;;;16.60;77.30;;;;;;5090251;27;20050;-66
2022/01/04 03:39:21;;;;;;;6.88;2.10;;;16.60;77.00;;;;;;5108145;27;20168;-66
2022/01/04 03:41:47;;;;;;;7.50;2.05;;;16.70;76.80;;;;;;5106608;27;20598;-66
2022/01/04 03:44:18;;;;;;;8.10;1.63;;;16.70;76.60;;;;;;5108248;27;20039;-66
2022/01/04 03:46:45;;;;;;;7.50;1.92;;;16.70;76.40;;;;;;5106857;27;20104;-66
2022/01/04 03:49:11;;;;;;;8.05;2.13;;;16.70;76.20;;;;;;5126141;27;20532;-66
2022/01/04 03:51:36;;;;;;;7.97;1.85;;;16.80;76.40;;;;;;5106357;27;20042;-66
2022/01/04 03:54:02;;;;;;;6.32;1.42;;;16.80;76.60;;;;;;5108179;27;20042;-66
2022/01/04 03:56:28;;;;;;;7.93;1.90;;;16.80;76.10;;;;;;5106832;27;20039;-66
2022/01/04 03:58:54;;;;;;;8.15;1.98;;;16.80;75.80;;;;;;5107327;27;20596;-66
2022/01/04 04:01:19;;;;;;;6.82;1.65;;;16.80;75.60;;;;;;5107924;27;20051;-66
2022/01/04 04:03:45;;;;;;;9.45;1.98;;;16.80;75.60;;;;;;5106459;27;20049;-66
2022/01/04 04:06:11;;;;;;;7.63;1.67;;;16.80;75.40;;;;;;5107187;27;20049;-66
2022/01/04 04:08:37;;;;;;;7.45;1.88;;;16.80;75.40;;;;;;5105169;27;20046;-66
2022/01/04 04:11:02;;;;;;;5.75;1.80;;;16.80;76.40;;;;;;5106134;27;20047;-66
2022/01/04 04:13:28;;;;;;;7.63;1.67;;;16.80;76.30;;;;;;5105276;27;20078;-66
2022/01/04 04:15:54;;;;;;;7.90;1.70;;;16.80;75.90;;;;;;5124089;27;20078;-66
2022/01/04 04:18:20;;;;;;;8.57;1.98;;;16.80;75.40;;;;;;5123550;27;20042;-66
2022/01/04 04:20:46;;;;;;;6.00;1.60;;;16.80;74.90;;;;;;5124108;27;20050;-66
2022/01/04 04:23:11;;;;;;;5.90;1.98;;;16.90;74.70;;;;;;5123546;27;20095;-66
2022/01/04 04:25:38;;;;;;;8.57;2.10;;;16.90;74.50;;;;;;5105979;27;20051;-66
2022/01/04 04:28:04;;;;;;;6.88;1.90;;;16.90;75.20;;;;;;5105081;27;20404;-66
2022/01/04 04:30:30;;;;;;;8.27;1.85;;;16.90;76.10;;;;;;5106003;27;20444;-66
2022/01/04 04:32:55;;;;;;;6.63;1.75;;;16.90;75.90;;;;;;5104968;27;20565;-66
2022/01/04 04:35:21;;;;;;;7.32;1.70;;;16.90;75.80;;;;;;5124269;27;20043;-66
2022/01/04 04:37:47;;;;;;;7.15;1.73;;;16.90;74.90;;;;;;5112703;27;20270;-66
2022/01/04 04:40:12;;;;;;;7.28;1.75;;;16.90;74.60;;;;;;5085104;28;20139;-66
2022/01/04 04:42:38;;;;;;;7.30;1.40;;;16.80;74.70;;;;;;5113242;27;20038;-66
2022/01/04 04:45:04;;;;;;;8.85;2.20;;;16.80;74.10;;;;;;5105877;27;20065;-66
2022/01/04 04:47:30;;;;;;;8.10;2.20;;;16.80;75.50;;;;;;5105116;27;20615;-66
2022/01/04 04:49:56;;;;;;;8.70;1.90;;;16.80;76.30;;;;;;5124251;27;20047;-66
2022/01/04 04:52:21;;;;;;;7.15;1.80;;;16.80;76.00;;;;;;5104217;27;20153;-66
2022/01/04 04:54:48;;;;;;;6.90;2.13;;;16.80;75.50;;;;;;5105596;27;20066;-66
2022/01/04 04:57:14;;;;;;;6.57;1.80;;;16.80;75.00;;;;;;5105092;27;20031;-66
2022/01/04 04:59:40;;;;;;;6.80;1.70;;;16.80;74.60;;;;;;5089587;27;20042;-66
2022/01/04 05:02:07;;;;;;;5.63;1.90;;;16.70;74.50;;;;;;5123325;27;20033;-66
2022/01/04 05:04:35;;;;;;;7.22;2.17;;;16.80;75.50;;;;;;5105984;27;20035;-66
2022/01/04 05:07:01;;;;;;;8.25;2.67;;;16.70;76.40;;;;;;5104057;28;20051;-66
2022/01/04 05:09:27;;;;;;;7.63;2.10;;;16.70;76.80;;;;;;5105759;27;20050;-66
2022/01/04 05:11:53;;;;;;;6.85;1.90;;;16.70;76.50;;;;;;5103601;28;20070;-66
2022/01/04 05:14:19;;;;;;;6.45;1.60;;;16.70;75.80;;;;;;5105279;28;20480;-66
2022/01/04 05:16:45;;;;;;;8.60;1.75;;;16.70;75.00;;;;;;5093540;28;21058;-66
2022/01/04 05:19:11;;;;;;;7.93;1.73;;;16.70;74.70;;;;;;5099313;28;20078;-66
2022/01/04 05:21:36;;;;;;;7.55;2.17;;;16.70;74.50;;;;;;5106082;28;20069;-66
2022/01/04 05:24:02;;;;;;;8.48;2.38;;;16.70;76.30;;;;;;5105492;28;20043;-66
2022/01/04 05:26:28;;;;;;;8.63;2.40;;;16.60;76.80;;;;;;5122822;28;20042;-66
2022/01/04 05:28:53;;;;;;;8.63;1.90;;;16.60;77.10;;;;;;5105196;28;20045;-66
2022/01/04 05:31:19;;;;;;;8.35;2.00;;;16.60;77.00;;;;;;5122931;28;20035;-66
2022/01/04 05:33:45;;;;;;;7.75;1.90;;;16.60;76.60;;;;;;5104119;28;20412;-66
2022/01/04 05:36:10;;;;;;;8.05;2.20;;;16.60;76.40;;;;;;5088202;28;20091;-66
2022/01/04 05:38:36;;;;;;;7.32;2.28;;;16.60;76.20;;;;;;5088345;28;20035;-66
2022/01/04 05:41:02;;;;;;;6.07;1.60;;;16.60;76.80;;;;;;5105935;28;20113;-66
2022/01/04 05:43:27;;;;;;;7.13;1.92;;;16.60;77.30;;;;;;5122092;28;20066;-66
2022/01/04 05:45:53;;;;;;;9.40;2.40;;;16.50;77.60;;;;;;5123510;28;20039;-66
2022/01/04 05:48:20;;;;;;;6.80;1.80;;;16.50;77.70;;;;;;5087998;28;20518;-66
2022/01/04 05:50:49;;;;;;;9.13;1.90;;;16.50;77.60;;;;;;5104614;27;20126;-66
2022/01/04 05:53:15;;;;;;;9.18;1.90;;;16.50;77.10;;;;;;5125117;27;20035;-66
2022/01/04 05:55:41;;;;;;;7.45;2.42;;;16.50;77.20;;;;;;5092407;27;20035;-66
2022/01/04 05:58:06;;;;;;;6.97;1.90;;;16.50;77.40;;;;;;5126573;27;20038;-66
2022/01/04 06:00:32;;;;;;;7.10;2.25;;;16.40;77.50;;;;;;5109119;27;20349;-66
2022/01/04 06:03:01;;;;;;;9.35;2.63;;;16.50;77.80;;;;;;5107841;27;20476;-66
2022/01/04 06:05:27;;;;;;;10.07;2.50;;;16.40;77.80;;;;;;5108591;27;20027;-66
2022/01/04 06:07:53;;;;;;;7.82;2.50;;;16.40;78.00;;;;;;5107609;27;20074;-66
2022/01/04 06:10:19;;;;;;;6.68;1.70;;;16.40;78.00;;;;;;5108293;27;20083;-66
2022/01/04 06:15:12;;;;;;;7.82;2.03;;;16.40;77.70;;;;;;5108419;27;20579;-66
2022/01/04 06:17:42;;;;;;;7.95;2.05;;;16.30;77.60;;;;;;5090707;27;20031;-66
2022/01/04 06:20:09;;;;;;;6.55;1.85;;;16.40;77.80;;;;;;5126950;27;20047;-66
2022/01/04 06:22:38;;;;;;;7.53;2.42;;;16.30;77.80;;;;;;5091408;27;20039;-66
2022/01/04 06:25:06;;;;;;;7.68;2.20;;;16.30;77.90;;;;;;5108400;27;20050;-66
2022/01/04 06:27:32;;;;;;;6.07;1.70;;;16.30;77.40;;;;;;5107621;27;20087;-66
2022/01/04 06:29:58;;;;;;;6.30;2.03;;;16.30;76.80;;;;;;5142397;27;20043;-66
2022/01/04 06:32:24;;;;;;;7.07;1.92;;;16.30;76.40;;;;;;5107568;27;20123;-66
2022/01/04 06:34:50;;;;;;;8.50;2.50;;;16.30;76.50;;;;;;5108385;27;20475;-66
2022/01/04 06:37:16;;;;;;;8.05;2.40;;;16.30;76.80;;;;;;5106669;27;20027;-66
2022/01/04 06:39:42;;;;;;;7.28;1.83;;;16.40;77.10;;;;;;5091470;27;20043;-66
2022/01/04 06:42:09;;;;;;;6.85;1.85;;;16.40;76.40;;;;;;5106808;27;20666;-66
2022/01/04 06:44:35;;;;;;;8.43;2.00;;;16.40;76.00;;;;;;5084202;27;20161;-66
2022/01/04 06:47:01;;;;;;;8.40;2.05;;;16.50;75.70;;;;;;5071124;27;20112;-66
2022/01/04 06:49:26;;;;;;;8.15;1.98;;;16.50;75.50;;;;;;5087748;27;20046;-66
2022/01/04 06:51:52;;;;;;;7.40;2.15;;;16.50;75.30;;;;;;5106572;27;20067;-66
2022/01/04 06:54:19;;;;;;;7.38;1.95;;;16.50;75.40;;;;;;5108023;27;20631;-66
2022/01/04 06:56:48;;;;;;;7.15;1.90;;;16.60;75.60;;;;;;5106658;27;20048;-66
2022/01/04 06:59:14;;;;;;;6.50;1.85;;;16.60;75.30;;;;;;5107803;27;20039;-66
2022/01/04 07:01:40;;;;;;;8.50;1.88;;;16.60;75.00;;;;;;5106289;27;20053;-66
2022/01/04 07:04:06;;;;;;;8.15;2.25;;;16.70;74.90;;;;;;5108005;27;20047;-66
2022/01/04 07:06:33;;;;;;;7.32;2.20;;;16.70;74.70;;;;;;5106496;27;20035;-66
2022/01/04 07:08:59;;;;;;;8.15;2.33;;;16.70;74.50;;;;;;5107787;27;20039;-66
2022/01/04 07:11:24;;;;;;;8.10;2.08;;;16.80;74.40;;;;;;5090274;27;20293;-66
2022/01/04 07:13:50;;;;;;;7.45;1.90;;;16.80;74.60;;;;;;5107750;27;20046;-66
2022/01/04 07:16:16;;;;;;;7.10;1.92;;;16.80;74.30;;;;;;5106349;27;20046;-66
2022/01/04 07:18:46;;;;;;;6.60;1.70;;;16.80;74.10;;;;;;5106350;27;20058;-66
2022/01/04 07:21:13;;;;;;;7.25;2.05;;;16.90;73.90;;;;;;5107093;27;20125;-66
2022/01/04 07:23:39;;;;;;;6.90;2.00;;;16.80;73.70;;;;;;5106590;27;20708;-66
2022/01/04 07:26:04;;;;;;;7.40;2.20;;;16.90;73.60;;;;;;5107546;27;20059;-66
2022/01/04 07:28:31;;;;;;;8.07;2.25;;;16.90;73.50;;;;;;5124137;27;20083;-65
2022/01/04 07:30:57;;;;;;;7.43;2.20;;;16.90;73.90;;;;;;5107326;27;20134;-66
2022/01/04 07:33:22;;;;;;;6.30;1.73;;;16.90;74.20;;;;;;5107034;27;20507;-66
2022/01/04 07:35:48;;;;;;;5.22;1.75;;;16.90;73.80;;;;;;5084484;27;20051;-66
2022/01/04 07:38:14;;;;;;;5.85;1.92;;;16.90;73.50;;;;;;5060751;28;20035;-66
2022/01/04 07:40:40;;;;;;;8.88;2.33;;;16.90;73.40;;;;;;5085533;28;20044;-66
2022/01/04 07:43:06;;;;;;;5.22;1.67;;;16.90;73.20;;;;;;5082519;28;20516;-66
2022/01/04 07:45:33;;;;;;;8.20;2.00;;;16.90;73.10;;;;;;5135496;27;20134;-66
2022/01/04 07:48:00;;;;;;;6.47;1.50;;;16.90;72.90;;;;;;5106322;27;20536;-66
2022/01/04 07:50:27;;;;;;;7.18;2.03;;;16.90;73.80;;;;;;5107250;27;20081;-66
2022/01/04 07:52:53;;;;;;;6.03;1.70;;;16.90;73.70;;;;;;5106784;27;20436;-66
2022/01/04 07:55:19;;;;;;;6.53;1.90;;;16.90;73.30;;;;;;5107534;27;20072;-66
2022/01/04 07:57:45;;;;;;;5.03;1.50;;;16.90;73.10;;;;;;5124281;27;20039;-66
2022/01/04 08:00:14;;;;;;;6.28;1.83;;;16.90;72.80;;;;;;5106874;27;20047;-66
2022/01/04 08:02:42;;;;;;;7.85;2.33;;;16.90;72.60;;;;;;5089334;27;20035;-66
2022/01/04 08:05:09;;;;;;;7.90;2.13;;;16.90;72.60;;;;;;5107040;27;20039;-66
2022/01/04 08:07:35;;;;;;;5.70;1.90;;;16.90;73.30;;;;;;5106553;27;20042;-66
2022/01/04 08:10:05;;;;;;;7.07;1.80;;;16.90;73.90;;;;;;5103980;28;20051;-66
2022/01/04 08:12:31;;;;;;;6.85;1.58;;;16.90;73.30;;;;;;5100161;28;20047;-66
2022/01/04 08:14:57;;;;;;;5.75;1.80;;;16.90;72.80;;;;;;5103242;28;20038;-67
2022/01/04 08:17:22;;;;;;;6.32;1.90;;;16.90;72.50;;;;;;5101484;28;20258;-66
2022/01/04 08:19:50;;;;;;;7.10;1.73;;;16.90;72.30;;;;;;5104002;28;20599;-66
2022/01/04 08:22:16;;;;;;;7.07;1.70;;;16.90;72.10;;;;;;5101741;28;20055;-67
2022/01/04 08:24:42;;;;;;;5.65;1.70;;;16.90;72.40;;;;;;5103342;28;20417;-66
2022/01/04 08:27:07;;;;;;;7.68;1.92;;;16.90;73.50;;;;;;5100503;28;20615;-66
2022/01/04 08:29:33;;;;;;;6.68;1.90;;;16.90;73.80;;;;;;5103232;28;20286;-66
2022/01/04 08:31:59;;;;;;;6.63;1.70;;;16.90;73.50;;;;;;5101674;28;20051;-67
2022/01/04 08:34:25;;;;;;;5.15;1.42;;;16.90;73.00;;;;;;5086982;28;20063;-68
2022/01/04 08:36:51;;;;;;;7.82;1.70;;;16.90;72.60;;;;;;5100939;28;20082;-66
2022/01/04 08:39:17;;;;;;;4.97;1.65;;;16.80;72.40;;;;;;5103356;28;20063;-66
2022/01/04 08:41:45;;;;;;;6.03;1.95;;;16.80;72.40;;;;;;5101203;28;20051;-66
2022/01/04 08:44:11;;;;;;;6.47;1.60;;;16.80;72.70;;;;;;5094294;28;20051;-67
2022/01/04 08:46:37;;;;;;;5.78;1.33;;;16.80;73.40;;;;;;5083204;28;20036;-66
2022/01/04 08:49:06;;;;;;;9.05;2.00;;;16.80;73.30;;;;;;5103552;28;20077;-67
2022/01/04 08:51:31;;;;;;;5.80;1.52;;;16.80;73.10;;;;;;5100959;28;20047;-67
2022/01/04 08:53:57;;;;;;;6.60;1.75;;;16.80;73.00;;;;;;5103526;28;20108;-67
2022/01/04 08:56:23;;;;;;;5.97;1.30;;;16.80;72.80;;;;;;5102339;28;20664;-67
2022/01/04 08:58:48;;;;;;;4.72;1.30;;;16.80;72.70;;;;;;5084264;28;20113;-67
2022/01/04 09:01:14;;;;;;;8.73;1.75;;;16.80;72.90;;;;;;5103143;28;20047;-67
2022/01/04 09:03:39;;;;;;;4.90;1.40;;;16.70;73.90;;;;;;5100781;28;20707;-66
2022/01/04 09:06:08;;;;;;;5.63;1.52;;;16.70;74.50;;;;;;5085742;28;20094;-67
2022/01/04 09:08:34;;;;;;;6.03;1.50;;;16.70;74.30;;;;;;5086015;28;20071;-66
2022/01/04 09:11:00;;;;;;;6.57;2.00;;;16.70;74.00;;;;;;5082002;28;20156;-67
2022/01/04 09:13:32;;;;;;;6.38;1.30;;;16.70;73.60;;;;;;5064579;28;20052;-67
2022/01/04 09:18:46;;;;;;;4.38;1.20;;;16.70;73.40;;;;;;5085665;28;20127;-67
2022/01/04 09:21:22;;;;;;;5.97;1.50;;;16.70;74.10;;;;;;5069089;28;20063;-66
2022/01/04 09:23:49;;;;;;;4.15;1.40;;;16.70;74.40;;;;;;5064826;28;21761;-66
2022/01/04 09:26:16;;;;;;;6.07;1.27;;;16.60;74.60;;;;;;5065407;28;20063;-67
2022/01/04 09:28:43;;;;;;;4.68;1.40;;;16.60;74.10;;;;;;5052625;28;20039;-66
2022/01/04 09:31:09;;;;;;;3.67;1.20;;;16.60;73.90;;;;;;5060406;28;20055;-66
2022/01/04 09:33:35;;;;;;;5.20;1.25;;;16.60;73.70;;;;;;5085286;28;20047;-66
2022/01/04 09:36:01;;;;;;;6.15;1.65;;;16.60;73.60;;;;;;5071406;28;20048;-66
2022/01/04 09:38:27;;;;;;;6.20;1.30;;;16.60;73.70;;;;;;5072369;28;20458;-66
2022/01/04 09:40:54;;;;;;;6.80;1.38;;;16.50;73.70;;;;;;5079013;28;20043;-66
2022/01/04 09:43:21;;;;;;;4.80;1.30;;;16.50;74.10;;;;;;5068261;28;20120;-66
2022/01/04 09:45:48;;;;;;;6.32;1.40;;;16.50;74.30;;;;;;5050817;28;20041;-66
2022/01/04 09:48:14;;;;;;;4.88;1.20;;;16.50;74.20;;;;;;5071105;28;20445;-66
2022/01/04 09:50:41;;;;;;;4.53;1.40;;;16.50;73.80;;;;;;5077220;28;20043;-67
2022/01/04 09:53:09;;;;;;;4.38;1.00;;;16.50;73.10;;;;;;5073263;28;20043;-66
2022/01/04 09:55:38;;;;;;;4.28;1.00;;;16.50;73.10;;;;;;5081216;28;20074;-67
2022/01/04 09:58:04;;;;;;;4.45;1.40;;;16.50;73.80;;;;;;5073199;28;20381;-66
2022/01/04 10:00:30;;;;;;;5.25;1.23;;;16.40;74.20;;;;;;5055914;28;20045;-66
2022/01/04 10:03:09;;;;;;;4.78;1.23;;;16.50;74.50;;;;;;5081455;27;20044;-67
2022/01/04 10:05:34;;;;;;;4.68;1.00;;;16.40;73.90;;;;;;5064306;28;20072;-66
2022/01/04 10:08:03;;;;;;;4.22;1.00;;;16.50;73.80;;;;;;5099194;27;20076;-66
2022/01/04 10:10:28;;;;;;;5.63;1.10;;;16.40;73.70;;;;;;5065026;28;20056;-66
2022/01/04 10:13:03;;;;;;;5.63;1.20;;;16.40;73.90;;;;;;5089406;28;20037;-66
2022/01/04 10:15:37;;;;;;;4.15;1.02;;;16.40;74.00;;;;;;5082542;28;20370;-66
2022/01/04 10:18:13;;;;;;;4.82;1.10;;;16.40;74.00;;;;;;5081155;28;20078;-66
2022/01/04 10:20:52;;;;;;;5.10;1.10;;;16.40;73.90;;;;;;5071421;28;20497;-67
2022/01/04 10:23:22;;;;;;;4.75;1.10;;;16.40;73.50;;;;;;5043598;28;20125;-66
2022/01/04 10:25:50;;;;;;;4.32;1.00;;;16.40;73.30;;;;;;5048020;28;20123;-67
2022/01/04 10:28:37;;;;;;;5.55;1.42;;;16.40;73.40;;;;;;5102361;27;20058;-67
2022/01/04 10:31:09;;;;;;;4.80;1.30;;;16.40;72.90;;;;;;5105669;27;20119;-67
2022/01/04 10:33:35;;;;;;;6.30;1.45;;;16.40;73.00;;;;;;5079508;28;20040;-67
2022/01/04 10:36:11;;;;;;;6.68;1.38;;;16.40;73.20;;;;;;5056508;28;20484;-67
2022/01/04 10:38:42;;;;;;;4.00;1.05;;;16.40;73.00;;;;;;5065124;28;20692;-67
2022/01/04 10:41:26;;;;;;;4.50;1.05;;;16.50;72.80;;;;;;5046957;28;20048;-67
2022/01/04 10:44:06;;;;;;;5.38;1.00;;;16.50;72.30;;;;;;5066443;28;20044;-67
2022/01/04 10:46:43;;;;;;;3.72;1.02;;;16.50;72.10;;;;;;5081583;28;20040;-67
2022/01/04 10:49:20;;;;;;;5.28;1.00;;;16.50;71.90;;;;;;5073208;28;20048;-67
2022/01/04 10:52:09;;;;;;;5.00;1.10;;;16.60;71.80;;;;;;5033800;28;20387;-67
2022/01/04 10:54:36;;;;;;;3.92;0.80;;;16.60;71.70;;;;;;5070363;28;20059;-68
2022/01/04 10:57:09;;;;;;;2.45;0.90;;;16.60;71.70;;;;;;5080584;28;20483;-68
2022/01/04 10:59:35;;;;;;;2.47;0.80;;;16.60;71.40;;;;;;5078238;28;20047;-67
2022/01/04 11:02:02;;;;;;;4.88;1.23;;;16.70;71.40;;;;;;5060566;28;20577;-70
2022/01/04 11:04:27;;;;;;;7.80;1.02;;;16.70;71.10;;;;;;5068612;28;20028;-71
2022/01/04 11:07:01;;;;;;;5.03;0.95;;;16.70;70.80;;;;;;5078627;28;20531;-69
2022/01/04 11:09:26;;;;;;;5.07;0.83;;;16.80;70.60;;;;;;5044525;28;20048;-69
2022/01/04 11:11:52;;;;;;;5.50;0.80;;;16.80;70.60;;;;;;5071216;28;20298;-69
2022/01/04 11:14:18;;;;;;;6.15;1.00;;;16.80;70.30;;;;;;5073588;28;20673;-72
2022/01/04 11:16:44;;;;;;;3.88;1.00;;;16.90;70.30;;;;;;5053791;28;20055;-74
2022/01/04 11:19:10;;;;;;;6.25;0.95;;;16.90;70.10;;;;;;5064385;28;20036;-72
2022/01/04 11:21:39;;;;;;;4.22;0.80;;;17.00;69.90;;;;;;5081833;28;20040;-66
2022/01/04 11:24:07;;;;;;;4.78;1.05;;;17.00;69.70;;;;;;5105450;27;20039;-65
2022/01/04 11:26:34;;;;;;;4.50;0.77;;;17.00;69.50;;;;;;5083251;28;20104;-64
2022/01/04 11:29:00;;;;;;;7.80;0.88;;;17.00;69.30;;;;;;5058485;28;20188;-66
2022/01/04 11:31:38;;;;;;;5.03;0.82;;;17.00;69.20;;;;;;5054379;28;20044;-66
2022/01/04 11:34:06;;;;;;;2.88;0.77;;;17.10;69.10;;;;;;5063015;28;20123;-66
2022/01/04 11:36:51;;;;;;;4.43;0.90;;;17.10;68.90;;;;;;5057727;28;20453;-66
2022/01/04 11:39:41;;;;;;;5.45;1.10;;;17.10;68.90;;;;;;5052242;28;20037;-65
2022/01/04 11:42:08;;;;;;;4.30;0.90;;;17.10;69.60;;;;;;5078748;28;20089;-65
2022/01/04 11:44:42;;;;;;;11.00;1.05;;;17.10;69.60;;;;;;5076866;28;20044;-63
2022/01/04 11:47:26;;;;;;;3.35;0.80;;;17.00;69.40;;;;;;5068442;28;20093;-66
2022/01/04 11:50:16;;;;;;;6.40;1.00;;;17.10;68.90;;;;;;5064004;28;20482;-66
2022/01/04 11:52:51;;;;;;;8.32;1.00;;;17.10;68.30;;;;;;5049082;28;20098;-67
2022/01/04 11:55:26;;;;;;;7.53;1.08;;;17.10;68.20;;;;;;5046724;28;20044;-67
2022/01/04 11:57:56;;;;;;;;;;;17.20;68.00;;;;;;5077651;28;20046;-67
2022/01/04 12:00:30;;;;;;;3.38;0.60;;;17.10;68.00;;;;;;5084333;28;20436;-67
2022/01/04 12:03:18;;;;;;;8.60;0.80;;;17.20;67.70;;;;;;5075696;28;20041;-68
2022/01/04 12:05:55;;;;;;;10.80;1.27;;;17.20;67.50;;;;;;5079697;28;20560;-68
2022/01/04 12:08:24;;;;;;;7.80;0.80;;;17.20;67.50;;;;;;5070993;28;20067;-67
2022/01/04 12:10:51;;;;;;;5.22;0.82;;;17.20;67.40;;;;;;5079473;28;20505;-68
2022/01/04 12:13:18;;;;;;;4.88;0.82;;;17.10;66.90;;;;;;5078524;28;20040;-67
2022/01/04 12:16:04;;;;;;;4.68;0.90;;;17.10;66.60;;;;;;5079742;28;20035;-67
2022/01/04 12:18:34;;;;;;;4.78;0.85;;;17.10;66.50;;;;;;5073236;28;20036;-67
2022/01/04 12:21:03;;;;;;;3.65;0.95;;;17.10;66.60;;;;;;5061839;28;20055;-67
2022/01/04 12:23:33;;;;;;;4.57;1.05;;;17.20;66.80;;;;;;5070763;28;20048;-68
2022/01/04 12:28:34;;;;;;;8.35;1.00;;;17.10;66.50;;;;;;5074215;28;20047;-67
2022/01/04 12:31:23;;;;;;;7.25;1.08;;;17.10;67.00;;;;;;5073036;28;20040;-67
2022/01/04 12:33:49;;;;;;;6.40;0.85;;;17.10;66.40;;;;;;5055342;28;20040;-67
2022/01/04 12:36:37;;;;;;;7.65;0.88;;;17.10;66.30;;;;;;5071361;28;20613;-66
2022/01/04 12:39:17;;;;;;;6.40;1.10;;;17.10;66.10;;;;;;5091734;27;20035;-67
2022/01/04 12:41:45;;;;;;;7.35;0.93;;;17.10;66.70;;;;;;5054630;28;20403;-66
2022/01/04 12:44:14;;;;;;;6.68;0.90;;;17.10;67.20;;;;;;5056992;28;20048;-67
2022/01/04 12:46:42;;;;;;;5.50;0.88;;;17.10;67.10;;;;;;5081023;28;20709;-67
2022/01/04 12:49:17;;;;;;;5.00;1.10;;;17.10;66.20;;;;;;5094998;28;20044;-66
2022/01/04 12:51:47;;;;;;;3.85;0.70;;;17.10;65.60;;;;;;5046871;28;20041;-67
2022/01/04 12:54:17;;;;;;;4.40;0.88;;;17.10;65.50;;;;;;5078848;28;20485;-66
2022/01/04 12:56:54;;;;;;;3.30;0.80;;;17.10;65.40;;;;;;5072919;28;20205;-66
2022/01/04 12:59:22;;;;;;;3.83;0.90;;;17.00;65.70;;;;;;5062536;28;20040;-66
2022/01/04 13:01:53;;;;;;;5.82;0.80;;;17.00;66.50;;;;;;5082888;28;20050;-66